Time;durP1;ratioP1;P1;durP2;ratioP2;P2;SDS_P1;SDS_P2;PMS_P1;PMS_P2;Temp;Humidity;BMP_temperature;BMP_pressure;BME280_temperature;BME280_humidity;BME280_pressure;Samples;Min_cycle;Max_cycle;Signal;HPM_P1;HPM_P2
2023/07/12 00:00:29;;;;;;;12.23;10.48;;;25.80;55.90;;;;;;4998906;28;20035;-63
2023/07/12 00:02:56;;;;;;;12.32;10.88;;;25.80;55.90;;;;;;5000304;28;20030;-66
2023/07/12 00:05:22;;;;;;;12.70;11.30;;;25.80;55.90;;;;;;5005611;28;20042;-66
2023/07/12 00:07:48;;;;;;;12.82;10.85;;;25.90;56.10;;;;;;4993829;28;20525;-66
2023/07/12 00:10:22;;;;;;;11.68;10.48;;;25.80;56.00;;;;;;4996072;28;20057;-65
2023/07/12 00:12:48;;;;;;;12.65;10.90;;;25.90;56.10;;;;;;5003458;28;20045;-62
2023/07/12 00:15:21;;;;;;;13.65;11.60;;;25.90;56.10;;;;;;4996900;28;20606;-66
2023/07/12 00:17:47;;;;;;;13.82;11.70;;;25.90;56.20;;;;;;4999094;28;20069;-63
2023/07/12 00:20:23;;;;;;;12.02;10.57;;;25.90;56.10;;;;;;4995235;28;20045;-66
2023/07/12 00:22:50;;;;;;;12.65;11.20;;;25.90;56.20;;;;;;4992983;28;20053;-62
2023/07/12 00:25:17;;;;;;;11.82;10.63;;;25.90;56.20;;;;;;5005179;28;20029;-64
2023/07/12 00:27:43;;;;;;;13.65;11.35;;;25.90;56.20;;;;;;4999090;28;20128;-61
2023/07/12 00:30:14;;;;;;;12.57;10.68;;;25.80;56.10;;;;;;4995394;28;20101;-66
2023/07/12 00:32:40;;;;;;;12.45;10.82;;;25.90;56.20;;;;;;4994873;28;20597;-66
2023/07/12 00:35:05;;;;;;;10.98;9.88;;;25.90;56.20;;;;;;4999583;28;20042;-66
2023/07/12 00:37:31;;;;;;;12.70;11.40;;;25.90;56.20;;;;;;4994323;28;20048;-62
2023/07/12 00:39:56;;;;;;;11.20;10.07;;;25.90;56.20;;;;;;4997793;28;20110;-63
2023/07/12 00:42:31;;;;;;;11.02;9.88;;;25.90;56.20;;;;;;5004670;28;20034;-66
2023/07/12 00:44:57;;;;;;;14.85;10.82;;;25.90;56.20;;;;;;4983520;28;20469;-66
2023/07/12 00:47:23;;;;;;;11.73;10.23;;;25.90;56.20;;;;;;4992527;28;20465;-66
2023/07/12 00:49:49;;;;;;;13.57;10.52;;;25.90;56.20;;;;;;4987866;28;20062;-66
2023/07/12 00:52:16;;;;;;;11.18;9.82;;;25.90;56.20;;;;;;4992434;28;20049;-66
2023/07/12 00:54:50;;;;;;;11.80;10.38;;;25.90;56.20;;;;;;5003930;28;20042;-63
2023/07/12 00:57:15;;;;;;;12.60;10.93;;;25.90;56.20;;;;;;4991895;28;20061;-66
2023/07/12 00:59:41;;;;;;;12.93;11.15;;;25.90;56.20;;;;;;4988689;28;20030;-65
2023/07/12 01:02:08;;;;;;;11.18;9.98;;;25.90;56.30;;;;;;5000522;28;20550;-66
2023/07/12 01:04:40;;;;;;;11.38;9.52;;;25.90;56.30;;;;;;4994900;28;20046;-65
2023/07/12 01:07:06;;;;;;;12.00;9.82;;;25.90;56.20;;;;;;4992518;28;20053;-65
2023/07/12 01:09:32;;;;;;;11.20;9.32;;;25.90;56.20;;;;;;4988899;28;20409;-65
2023/07/12 01:11:58;;;;;;;11.43;9.85;;;25.90;56.10;;;;;;4999466;28;20030;-66
2023/07/12 01:14:24;;;;;;;10.73;9.63;;;25.90;56.20;;;;;;5003229;28;20084;-65
2023/07/12 01:17:04;;;;;;;15.30;10.40;;;25.90;56.00;;;;;;4987835;28;20565;-63
2023/07/12 01:19:31;;;;;;;10.40;9.32;;;25.90;56.20;;;;;;4988046;28;20386;-62
2023/07/12 01:21:57;;;;;;;10.80;9.32;;;25.90;56.20;;;;;;4998378;28;20484;-62
2023/07/12 01:24:25;;;;;;;9.63;8.60;;;25.80;56.20;;;;;;4998778;28;20341;-66
2023/07/12 01:26:53;;;;;;;10.98;9.20;;;25.90;56.20;;;;;;4997192;28;20061;-63
2023/07/12 01:29:19;;;;;;;10.13;8.93;;;25.90;56.30;;;;;;4998119;28;20504;-67
2023/07/12 01:31:46;;;;;;;9.45;8.48;;;25.90;56.30;;;;;;4994819;28;20683;-65
2023/07/12 01:34:12;;;;;;;11.95;8.63;;;25.80;56.20;;;;;;4994442;28;20113;-67
2023/07/12 01:36:38;;;;;;;11.80;8.55;;;25.90;56.20;;;;;;4996446;28;20046;-66
2023/07/12 01:39:05;;;;;;;12.88;8.57;;;25.90;55.90;;;;;;4996470;28;20023;-66
2023/07/12 01:41:32;;;;;;;12.05;7.88;;;25.90;56.30;;;;;;5003488;28;20026;-65
2023/07/12 01:43:57;;;;;;;10.15;8.23;;;25.80;56.30;;;;;;5018554;28;20022;-65
2023/07/12 01:46:24;;;;;;;8.98;8.02;;;25.90;56.40;;;;;;5014429;28;20042;-66
2023/07/12 01:48:50;;;;;;;9.07;7.57;;;25.80;56.30;;;;;;5017289;28;20686;-63
2023/07/12 01:51:17;;;;;;;8.18;7.38;;;25.80;56.20;;;;;;5023085;28;20029;-66
2023/07/12 01:53:44;;;;;;;9.60;7.80;;;25.90;56.40;;;;;;5024555;28;20048;-67
2023/07/12 01:56:10;;;;;;;7.78;6.35;;;25.80;56.30;;;;;;5017042;28;20036;-62
2023/07/12 01:58:35;;;;;;;10.35;6.72;;;25.80;56.30;;;;;;5018819;28;20141;-66
2023/07/12 02:01:01;;;;;;;9.10;6.65;;;25.80;56.40;;;;;;5008024;28;20026;-66
2023/07/12 02:03:27;;;;;;;7.40;6.15;;;25.80;56.30;;;;;;5004263;28;20034;-64
2023/07/12 02:05:53;;;;;;;7.88;5.95;;;25.80;56.30;;;;;;4999139;28;20072;-66
2023/07/12 02:08:19;;;;;;;7.15;5.82;;;25.80;56.30;;;;;;4997631;28;20516;-66
2023/07/12 02:10:44;;;;;;;7.30;5.82;;;25.80;56.10;;;;;;4995476;28;20046;-66
2023/07/12 02:13:10;;;;;;;7.72;4.82;;;25.80;55.90;;;;;;4990631;28;20042;-66
2023/07/12 02:15:37;;;;;;;6.30;5.18;;;25.80;55.80;;;;;;4996687;28;20497;-65
2023/07/12 02:18:02;;;;;;;6.93;4.78;;;25.80;56.00;;;;;;5000325;28;20089;-66
2023/07/12 02:20:28;;;;;;;6.93;4.70;;;25.70;55.80;;;;;;4994666;28;20045;-65
2023/07/12 02:22:54;;;;;;;7.57;5.35;;;25.70;55.80;;;;;;4993891;28;20488;-67
2023/07/12 02:25:20;;;;;;;4.55;4.03;;;25.70;55.80;;;;;;5009154;28;20042;-66
2023/07/12 02:27:46;;;;;;;5.88;4.32;;;25.70;55.90;;;;;;5000146;28;20229;-66
2023/07/12 02:30:21;;;;;;;7.18;4.22;;;25.70;55.90;;;;;;5008992;28;20040;-66
2023/07/12 02:32:46;;;;;;;5.28;3.88;;;25.80;55.90;;;;;;5005061;28;20102;-66
2023/07/12 02:35:12;;;;;;;4.57;3.42;;;25.70;55.80;;;;;;5001346;28;20041;-67
2023/07/12 02:37:38;;;;;;;5.35;3.08;;;25.70;56.00;;;;;;4998048;28;20041;-66
2023/07/12 02:40:05;;;;;;;6.88;3.65;;;25.80;56.00;;;;;;4998952;28;20452;-66
2023/07/12 02:42:31;;;;;;;5.72;3.60;;;25.70;55.90;;;;;;4999405;28;20072;-64
2023/07/12 02:44:57;;;;;;;7.95;3.28;;;25.70;55.90;;;;;;4995770;28;20134;-66
2023/07/12 02:47:22;;;;;;;3.38;2.95;;;25.70;55.90;;;;;;4997545;28;20042;-66
2023/07/12 02:49:48;;;;;;;5.45;2.85;;;25.70;55.90;;;;;;5002588;28;20052;-67
2023/07/12 02:52:14;;;;;;;2.88;2.53;;;25.70;56.00;;;;;;5007396;28;20094;-66
2023/07/12 02:54:39;;;;;;;3.67;2.67;;;25.70;56.00;;;;;;5006497;28;20042;-67
2023/07/12 02:57:06;;;;;;;3.95;3.08;;;25.70;56.20;;;;;;5005767;28;20648;-67
2023/07/12 02:59:32;;;;;;;3.90;3.05;;;25.70;56.30;;;;;;5001111;28;20037;-67
2023/07/12 03:01:57;;;;;;;7.25;3.17;;;25.70;56.30;;;;;;5007713;28;20428;-66
2023/07/12 03:04:23;;;;;;;3.88;2.83;;;25.70;56.40;;;;;;5007687;28;20037;-66
2023/07/12 03:06:49;;;;;;;2.28;2.08;;;25.70;56.50;;;;;;5005275;28;20062;-67
2023/07/12 03:09:15;;;;;;;4.15;2.50;;;25.70;56.50;;;;;;5006445;28;20069;-66
2023/07/12 03:11:43;;;;;;;2.38;2.17;;;25.70;56.60;;;;;;4996355;28;20123;-66
2023/07/12 03:14:08;;;;;;;4.47;2.75;;;25.70;56.60;;;;;;5006703;28;20049;-66
2023/07/12 03:16:34;;;;;;;3.20;2.58;;;25.70;56.70;;;;;;5000148;28;20065;-65
2023/07/12 03:19:00;;;;;;;3.92;2.38;;;25.60;56.60;;;;;;4999844;28;20515;-66
2023/07/12 03:21:25;;;;;;;3.55;2.55;;;25.70;56.80;;;;;;5007439;28;20034;-67
2023/07/12 03:23:51;;;;;;;3.35;1.83;;;25.70;56.80;;;;;;5007528;28;20049;-66
2023/07/12 03:26:16;;;;;;;4.32;2.28;;;25.60;56.80;;;;;;5014192;28;20025;-66
2023/07/12 03:28:42;;;;;;;2.47;2.03;;;25.60;56.80;;;;;;5006149;28;20485;-66
2023/07/12 03:31:13;;;;;;;2.45;2.00;;;25.60;56.90;;;;;;5000018;28;20117;-66
2023/07/12 03:33:39;;;;;;;3.17;2.00;;;25.60;57.00;;;;;;4997146;28;20030;-67
2023/07/12 03:36:05;;;;;;;2.67;2.40;;;25.60;57.00;;;;;;4995407;28;20041;-65
2023/07/12 03:38:31;;;;;;;4.28;2.30;;;25.60;57.10;;;;;;4997220;28;20074;-67
2023/07/12 03:41:00;;;;;;;2.47;2.05;;;25.60;57.20;;;;;;5001339;28;20120;-67
2023/07/12 03:43:25;;;;;;;3.17;2.22;;;25.60;57.20;;;;;;4995179;28;20037;-66
2023/07/12 03:45:52;;;;;;;3.25;2.20;;;25.60;57.30;;;;;;5002415;28;20377;-68
2023/07/12 03:48:19;;;;;;;3.20;2.40;;;25.60;57.30;;;;;;5000329;28;20054;-66
2023/07/12 03:50:47;;;;;;;2.55;1.83;;;25.60;57.40;;;;;;4995199;28;20049;-67
2023/07/12 03:53:13;;;;;;;5.85;2.67;;;25.60;58.10;;;;;;4999688;28;20117;-67
2023/07/12 03:55:39;;;;;;;3.40;2.38;;;25.60;57.50;;;;;;5000806;28;20518;-67
2023/07/12 03:58:05;;;;;;;2.78;1.92;;;25.60;57.50;;;;;;5000447;28;20049;-66
2023/07/12 04:00:31;;;;;;;3.15;2.45;;;25.60;57.40;;;;;;4998273;28;20536;-67
2023/07/12 04:02:56;;;;;;;2.45;1.95;;;25.60;57.40;;;;;;5002538;28;20343;-67
2023/07/12 04:05:22;;;;;;;2.53;2.20;;;25.60;57.40;;;;;;4998598;28;20480;-66
2023/07/12 04:07:47;;;;;;;2.88;2.03;;;25.60;57.40;;;;;;4999680;28;20038;-66
2023/07/12 04:10:13;;;;;;;3.50;1.90;;;25.50;57.30;;;;;;4999108;28;20026;-66
2023/07/12 04:12:39;;;;;;;2.28;1.90;;;25.50;57.30;;;;;;5005814;28;20231;-65
2023/07/12 04:15:05;;;;;;;2.30;1.60;;;25.50;57.20;;;;;;5000441;28;20053;-66
2023/07/12 04:17:31;;;;;;;4.07;2.17;;;25.60;57.30;;;;;;5005798;28;20038;-67
2023/07/12 04:19:58;;;;;;;2.78;1.83;;;25.60;57.30;;;;;;4997997;28;20026;-66
2023/07/12 04:22:23;;;;;;;3.80;1.92;;;25.60;57.20;;;;;;4997451;28;20511;-66
2023/07/12 04:24:50;;;;;;;3.40;2.03;;;25.50;57.20;;;;;;5000651;28;20030;-66
2023/07/12 04:27:16;;;;;;;4.10;2.03;;;25.50;57.30;;;;;;5005551;28;20034;-66
2023/07/12 04:29:42;;;;;;;2.10;1.83;;;25.60;57.40;;;;;;5004224;28;20033;-66
2023/07/12 04:32:07;;;;;;;2.25;1.60;;;25.60;57.40;;;;;;4993112;28;20096;-66
2023/07/12 04:34:33;;;;;;;3.15;1.60;;;25.50;57.40;;;;;;5003540;28;20448;-66
2023/07/12 04:36:58;;;;;;;5.78;2.63;;;25.50;57.50;;;;;;4995193;28;20059;-67
2023/07/12 04:39:24;;;;;;;2.47;2.00;;;25.50;57.50;;;;;;5002563;28;20129;-66
2023/07/12 04:41:49;;;;;;;4.05;1.85;;;25.60;57.60;;;;;;5003886;28;20037;-66
2023/07/12 04:44:15;;;;;;;3.25;1.90;;;25.50;57.30;;;;;;5004981;28;20037;-67
2023/07/12 04:46:41;;;;;;;3.70;1.83;;;25.50;57.30;;;;;;5005059;28;20405;-67
2023/07/12 04:49:08;;;;;;;2.03;1.70;;;25.50;57.20;;;;;;5002628;28;20034;-67
2023/07/12 04:51:34;;;;;;;2.78;2.17;;;25.50;57.10;;;;;;4994711;28;20033;-66
2023/07/12 04:53:59;;;;;;;2.78;1.83;;;25.50;57.00;;;;;;4992840;28;20304;-67
2023/07/12 04:56:25;;;;;;;2.08;1.58;;;25.60;57.10;;;;;;4996680;28;20022;-67
2023/07/12 04:58:50;;;;;;;2.58;1.65;;;25.50;56.90;;;;;;4989359;28;20022;-67
2023/07/12 05:01:18;;;;;;;2.05;1.85;;;25.50;56.80;;;;;;5005706;28;20505;-67
2023/07/12 05:03:43;;;;;;;3.00;1.50;;;25.50;56.80;;;;;;4994891;28;20045;-64
2023/07/12 05:06:09;;;;;;;2.03;1.83;;;25.50;56.70;;;;;;4994879;28;20496;-66
2023/07/12 05:08:34;;;;;;;1.95;1.50;;;25.60;56.80;;;;;;4988998;28;20035;-66
2023/07/12 05:11:01;;;;;;;2.13;1.60;;;25.50;56.80;;;;;;4997538;28;20034;-66
2023/07/12 05:13:27;;;;;;;2.75;2.00;;;25.50;56.80;;;;;;5000934;28;20034;-67
2023/07/12 05:15:53;;;;;;;2.70;1.83;;;25.50;56.90;;;;;;4999923;28;20041;-66
2023/07/12 05:18:19;;;;;;;2.85;1.85;;;25.60;57.00;;;;;;4989285;28;20117;-66
2023/07/12 05:20:45;;;;;;;4.25;1.60;;;25.60;57.00;;;;;;4996803;28;20180;-66
2023/07/12 05:23:11;;;;;;;2.30;1.60;;;25.60;57.00;;;;;;4986924;28;20034;-66
2023/07/12 05:25:36;;;;;;;2.58;1.80;;;25.60;57.00;;;;;;5000964;28;20041;-66
2023/07/12 05:28:02;;;;;;;2.33;1.50;;;25.60;57.00;;;;;;4998980;28;20058;-65
2023/07/12 05:30:29;;;;;;;3.22;1.73;;;25.60;56.90;;;;;;4996827;28;20054;-64
2023/07/12 05:32:55;;;;;;;2.08;1.42;;;25.70;56.90;;;;;;4993578;28;20039;-65
2023/07/12 05:35:21;;;;;;;1.83;1.73;;;25.70;56.90;;;;;;4997113;28;20057;-65
2023/07/12 05:37:48;;;;;;;4.07;1.80;;;25.70;56.90;;;;;;4996927;28;20405;-66
2023/07/12 05:40:14;;;;;;;3.53;1.50;;;25.70;56.90;;;;;;4992332;28;20401;-66
2023/07/12 05:42:40;;;;;;;1.60;1.30;;;25.70;56.90;;;;;;4997838;28;20050;-66
2023/07/12 05:45:07;;;;;;;1.70;1.60;;;25.70;57.00;;;;;;4996118;28;20030;-66
2023/07/12 05:47:32;;;;;;;2.60;1.77;;;25.70;57.00;;;;;;4990573;28;20038;-66
2023/07/12 05:49:58;;;;;;;2.17;1.52;;;25.70;57.10;;;;;;4995936;28;20049;-67
2023/07/12 05:52:23;;;;;;;1.33;1.20;;;25.70;57.10;;;;;;4998758;28;20030;-66
2023/07/12 05:54:49;;;;;;;3.28;1.63;;;25.70;57.20;;;;;;5001407;28;20030;-65
2023/07/12 05:57:14;;;;;;;1.50;1.40;;;25.70;57.20;;;;;;5005296;28;20227;-66
2023/07/12 05:59:40;;;;;;;1.92;1.63;;;25.70;57.30;;;;;;4993767;28;20033;-65
2023/07/12 06:02:08;;;;;;;2.88;1.40;;;25.70;57.50;;;;;;5007167;28;20057;-64
2023/07/12 06:04:33;;;;;;;2.92;1.70;;;25.70;57.50;;;;;;4993223;28;20036;-66
2023/07/12 06:06:59;;;;;;;1.80;1.55;;;25.70;57.50;;;;;;5000765;28;20038;-66
2023/07/12 06:09:24;;;;;;;2.95;1.95;;;25.70;57.50;;;;;;5001628;28;20034;-66
2023/07/12 06:11:50;;;;;;;2.75;1.67;;;25.70;57.60;;;;;;4998080;28;20493;-65
2023/07/12 06:14:15;;;;;;;4.07;1.98;;;25.70;57.60;;;;;;5003630;28;20030;-66
2023/07/12 06:16:43;;;;;;;3.17;1.98;;;25.70;57.50;;;;;;5003794;28;20022;-67
2023/07/12 06:19:08;;;;;;;3.42;1.75;;;25.70;57.50;;;;;;5014033;28;20025;-66
2023/07/12 06:21:34;;;;;;;3.55;2.38;;;25.70;57.50;;;;;;5018064;28;20527;-66
2023/07/12 06:23:59;;;;;;;2.65;1.70;;;25.70;57.70;;;;;;5004355;28;20358;-66
2023/07/12 06:26:25;;;;;;;3.83;1.98;;;25.70;57.70;;;;;;4998510;28;20224;-66
2023/07/12 06:28:51;;;;;;;2.67;2.08;;;25.70;57.70;;;;;;5001848;28;20034;-67
2023/07/12 06:31:16;;;;;;;1.95;1.35;;;25.80;57.80;;;;;;4993962;28;20032;-65
2023/07/12 06:33:42;;;;;;;2.80;2.08;;;25.70;57.80;;;;;;5007609;28;20037;-66
2023/07/12 06:36:08;;;;;;;2.33;1.73;;;25.70;57.90;;;;;;5005197;28;20085;-65
2023/07/12 06:38:34;;;;;;;2.97;1.70;;;25.70;58.00;;;;;;5005607;28;20029;-66
2023/07/12 06:40:59;;;;;;;2.53;1.65;;;25.70;57.90;;;;;;4997815;28;20029;-66
2023/07/12 06:43:25;;;;;;;1.75;1.42;;;25.70;57.80;;;;;;4998589;28;20370;-66
2023/07/12 06:45:50;;;;;;;2.10;1.58;;;25.70;57.70;;;;;;4992410;28;20401;-65
2023/07/12 06:48:16;;;;;;;4.57;1.70;;;25.70;57.70;;;;;;5000561;28;20173;-66
2023/07/12 06:50:42;;;;;;;4.35;1.77;;;25.70;57.70;;;;;;5006013;28;20034;-65
2023/07/12 06:53:07;;;;;;;2.65;1.23;;;25.70;57.70;;;;;;4997764;28;20102;-65
2023/07/12 06:55:33;;;;;;;1.83;1.60;;;25.80;57.70;;;;;;4993954;28;20037;-65
2023/07/12 06:57:58;;;;;;;2.53;1.77;;;25.80;57.60;;;;;;5022683;28;20026;-65
2023/07/12 07:00:24;;;;;;;2.03;1.48;;;25.80;57.60;;;;;;4997906;28;20033;-66
2023/07/12 07:02:50;;;;;;;3.50;1.90;;;25.70;57.70;;;;;;4997712;28;20030;-66
2023/07/12 07:05:15;;;;;;;2.53;1.63;;;25.80;57.60;;;;;;5006160;28;20611;-66
2023/07/12 07:07:40;;;;;;;1.67;1.23;;;25.70;57.60;;;;;;5002351;28;20091;-65
2023/07/12 07:10:06;;;;;;;1.50;1.40;;;25.80;57.70;;;;;;5000862;28;20469;-66
2023/07/12 07:12:32;;;;;;;3.90;1.40;;;25.80;57.70;;;;;;4994365;28;20078;-65
2023/07/12 07:14:57;;;;;;;2.38;1.27;;;25.80;57.70;;;;;;5001956;28;20108;-66
2023/07/12 07:17:23;;;;;;;1.90;1.58;;;25.70;57.70;;;;;;5003482;28;20112;-65
2023/07/12 07:19:49;;;;;;;2.53;1.35;;;25.80;57.70;;;;;;5000337;28;20582;-66
2023/07/12 07:22:14;;;;;;;1.88;1.42;;;25.80;57.70;;;;;;5006946;28;20029;-66
2023/07/12 07:24:40;;;;;;;3.78;1.70;;;25.80;57.60;;;;;;4993635;28;20496;-66
2023/07/12 07:27:06;;;;;;;1.50;1.40;;;25.80;57.60;;;;;;5000236;28;20038;-65
2023/07/12 07:29:31;;;;;;;1.70;1.33;;;25.80;57.50;;;;;;5006276;28;20077;-65
2023/07/12 07:31:57;;;;;;;1.67;1.35;;;25.80;57.90;;;;;;5003730;28;20021;-66
2023/07/12 07:34:22;;;;;;;2.45;1.52;;;25.80;58.10;;;;;;4993041;28;20097;-66
2023/07/12 07:36:48;;;;;;;3.65;1.48;;;25.80;58.00;;;;;;4994135;28;20037;-66
2023/07/12 07:39:13;;;;;;;2.63;1.70;;;25.80;58.00;;;;;;4999801;28;20029;-66
2023/07/12 07:41:39;;;;;;;2.92;1.52;;;25.80;58.00;;;;;;4997626;28;20056;-66
2023/07/12 07:44:04;;;;;;;2.42;1.58;;;25.80;58.00;;;;;;4993122;28;20428;-66
2023/07/12 07:46:30;;;;;;;2.95;1.73;;;25.80;58.00;;;;;;4998118;28;20030;-66
2023/07/12 07:48:55;;;;;;;3.47;1.83;;;25.80;58.20;;;;;;4992882;28;20113;-66
2023/07/12 07:51:20;;;;;;;3.58;1.65;;;25.80;58.20;;;;;;4998624;28;20021;-66
2023/07/12 07:53:46;;;;;;;1.90;1.70;;;25.80;58.10;;;;;;4993223;28;20041;-65
2023/07/12 07:56:12;;;;;;;3.80;1.60;;;25.80;58.00;;;;;;4999348;28;20132;-66
2023/07/12 07:58:37;;;;;;;2.83;1.75;;;25.80;58.40;;;;;;4992250;28;20057;-66
2023/07/12 08:01:03;;;;;;;2.88;1.65;;;25.80;58.50;;;;;;4996896;28;20025;-65
2023/07/12 08:03:30;;;;;;;3.85;1.80;;;25.80;58.50;;;;;;4994173;28;20038;-66
2023/07/12 08:06:03;;;;;;;1.58;1.45;;;25.70;58.70;;;;;;4998662;28;20113;-66
2023/07/12 08:08:29;;;;;;;2.63;1.80;;;25.80;58.50;;;;;;4989872;28;20528;-66
2023/07/12 08:10:55;;;;;;;4.10;1.42;;;25.80;58.50;;;;;;4982284;28;20371;-66
2023/07/12 08:13:21;;;;;;;2.03;1.77;;;25.80;58.70;;;;;;4999757;28;20398;-65
2023/07/12 08:15:46;;;;;;;3.47;1.50;;;25.80;58.70;;;;;;4998490;28;20049;-66
2023/07/12 08:18:12;;;;;;;3.20;1.92;;;25.80;58.70;;;;;;4992868;28;20027;-66
2023/07/12 08:20:39;;;;;;;2.90;1.92;;;25.80;58.50;;;;;;4994193;28;20151;-66
2023/07/12 08:23:06;;;;;;;3.47;1.80;;;25.80;58.70;;;;;;4997929;28;20413;-65
2023/07/12 08:25:32;;;;;;;2.13;1.70;;;25.80;58.80;;;;;;4997993;28;20029;-66
2023/07/12 08:27:57;;;;;;;2.25;1.90;;;25.80;58.70;;;;;;5000355;28;20083;-66
2023/07/12 08:30:23;;;;;;;6.03;2.22;;;25.80;58.50;;;;;;4998237;28;20026;-66
2023/07/12 08:32:48;;;;;;;2.00;1.80;;;25.90;58.50;;;;;;4995329;28;20106;-66
2023/07/12 08:35:14;;;;;;;3.08;2.05;;;25.90;58.50;;;;;;5000340;28;20038;-66
2023/07/12 08:37:40;;;;;;;3.88;1.90;;;25.90;58.60;;;;;;4999222;28;20374;-66
2023/07/12 08:40:06;;;;;;;2.00;1.70;;;25.90;58.60;;;;;;4994999;28;20112;-65
2023/07/12 08:42:38;;;;;;;2.70;1.75;;;25.90;58.40;;;;;;4996948;28;20042;-66
2023/07/12 08:45:20;;;;;;;4.15;2.10;;;25.90;58.50;;;;;;4996829;28;20058;-67
2023/07/12 08:47:48;;;;;;;4.68;2.10;;;25.90;58.50;;;;;;4994470;28;20045;-66
2023/07/12 08:50:15;;;;;;;4.63;2.40;;;25.90;58.70;;;;;;4992662;28;20049;-66
2023/07/12 08:52:44;;;;;;;2.47;1.45;;;25.90;58.60;;;;;;4989156;28;20038;-65
2023/07/12 08:55:16;;;;;;;4.68;1.92;;;25.90;58.70;;;;;;4999375;28;20061;-66
2023/07/12 08:57:42;;;;;;;2.95;1.80;;;25.90;58.60;;;;;;4994042;28;20038;-65
2023/07/12 09:00:17;;;;;;;3.00;1.98;;;25.90;58.40;;;;;;5002505;28;20041;-63
2023/07/12 09:02:43;;;;;;;5.10;2.30;;;25.90;58.50;;;;;;4987951;28;20037;-66
2023/07/12 09:05:16;;;;;;;2.25;2.03;;;25.90;58.60;;;;;;4989308;28;20030;-66
2023/07/12 09:07:53;;;;;;;4.13;2.17;;;25.90;58.60;;;;;;4994781;28;20045;-65
2023/07/12 09:10:56;;;;;;;2.30;1.77;;;26.00;58.60;;;;;;4994643;28;20081;-66
2023/07/12 09:13:30;;;;;;;3.08;1.98;;;25.90;58.60;;;;;;4962522;28;20042;-66
2023/07/12 09:15:56;;;;;;;3.38;2.00;;;26.00;58.70;;;;;;4987705;28;20305;-66
2023/07/12 09:18:36;;;;;;;3.75;1.85;;;26.00;58.50;;;;;;4994642;28;20548;-66
2023/07/12 09:21:19;;;;;;;2.50;1.90;;;25.90;58.50;;;;;;5013387;28;20030;-66
2023/07/12 09:23:45;;;;;;;2.83;2.35;;;26.00;58.50;;;;;;5004085;28;20049;-66
2023/07/12 09:26:22;;;;;;;2.90;2.08;;;26.00;58.60;;;;;;4999218;28;20026;-65
2023/07/12 09:28:49;;;;;;;3.13;2.30;;;26.00;58.90;;;;;;5003113;28;20042;-66
2023/07/12 09:31:27;;;;;;;3.03;2.40;;;26.00;58.70;;;;;;5001734;28;20145;-68
2023/07/12 09:33:58;;;;;;;3.55;2.65;;;26.00;58.70;;;;;;4995445;28;20625;-66
2023/07/12 09:36:23;;;;;;;4.50;2.58;;;26.00;58.80;;;;;;5004861;28;20061;-66
2023/07/12 09:38:49;;;;;;;2.42;2.17;;;26.00;58.80;;;;;;5002561;28;20543;-66
2023/07/12 09:41:22;;;;;;;5.13;2.08;;;25.90;58.60;;;;;;4995211;28;20164;-66
2023/07/12 09:43:56;;;;;;;3.65;2.63;;;26.00;58.60;;;;;;5001111;28;20045;-66
2023/07/12 09:46:32;;;;;;;4.40;2.63;;;26.00;58.50;;;;;;4998401;28;20034;-66
2023/07/12 09:49:06;;;;;;;2.60;2.33;;;26.00;58.30;;;;;;5000709;28;20030;-66
2023/07/12 09:51:40;;;;;;;3.05;2.75;;;26.00;58.30;;;;;;5001592;28;20032;-66
2023/07/12 09:54:16;;;;;;;2.87;2.57;;;26.00;58.10;;;;;;4999045;28;20026;-66
2023/07/12 09:56:51;;;;;;;2.67;2.40;;;26.00;58.10;;;;;;4996267;28;20019;-66
2023/07/12 09:59:48;;;;;;;3.97;2.42;;;26.00;58.00;;;;;;5000079;28;20182;-65
2023/07/12 10:02:29;;;;;;;6.90;3.03;;;26.00;58.50;;;;;;4995236;28;20026;-64
2023/07/12 10:05:18;;;;;;;3.90;2.67;;;26.00;58.50;;;;;;4990652;28;20037;-66
2023/07/12 10:08:08;;;;;;;2.78;2.50;;;26.00;58.30;;;;;;4993099;28;20125;-66
2023/07/12 10:10:45;;;;;;;3.03;2.72;;;26.10;58.30;;;;;;4981530;28;20544;-66
2023/07/12 10:13:35;;;;;;;3.53;3.00;;;26.10;58.20;;;;;;4993534;28;20045;-66
2023/07/12 10:16:03;;;;;;;3.33;2.55;;;26.00;58.00;;;;;;4998591;28;20138;-66
2023/07/12 10:18:33;;;;;;;3.13;2.42;;;26.10;58.00;;;;;;4993656;28;20081;-65
2023/07/12 10:21:00;;;;;;;3.65;2.42;;;26.00;57.80;;;;;;5001772;28;20540;-65
2023/07/12 10:23:30;;;;;;;2.28;2.08;;;26.10;57.90;;;;;;5000387;28;20092;-66
2023/07/12 10:25:59;;;;;;;4.13;2.72;;;26.10;57.80;;;;;;5002593;28;20521;-66
2023/07/12 10:28:55;;;;;;;6.07;2.90;;;26.10;57.70;;;;;;5004013;28;20033;-66
2023/07/12 10:31:31;;;;;;;6.10;2.90;;;26.10;57.80;;;;;;4995790;28;20034;-66
2023/07/12 10:34:24;;;;;;;3.15;2.67;;;26.10;57.90;;;;;;5006840;28;20026;-66
2023/07/12 10:36:54;;;;;;;4.10;3.65;;;26.00;59.00;;;;;;4998954;28;20044;-66
2023/07/12 10:39:21;;;;;;;5.90;4.15;;;26.00;60.00;;;;;;4993637;28;20035;-66
2023/07/12 10:41:50;;;;;;;4.88;4.38;;;26.00;60.50;;;;;;4998335;28;20129;-65
2023/07/12 10:44:35;;;;;;;4.68;4.10;;;25.90;60.90;;;;;;5001663;28;20287;-66
2023/07/12 10:47:06;;;;;;;7.43;5.00;;;25.90;61.50;;;;;;4993378;28;20040;-66
2023/07/12 10:49:44;;;;;;;6.80;4.45;;;25.80;61.80;;;;;;5007492;28;20030;-66
2023/07/12 10:52:10;;;;;;;5.38;4.63;;;25.90;61.90;;;;;;4995295;28;20030;-66
2023/07/12 10:54:35;;;;;;;9.20;4.97;;;25.90;61.70;;;;;;5005799;28;20034;-65
2023/07/12 10:57:24;;;;;;;7.90;4.68;;;25.90;62.10;;;;;;4990399;28;20035;-66
2023/07/12 10:59:59;;;;;;;6.32;5.40;;;25.90;62.80;;;;;;5006227;28;20042;-66
2023/07/12 11:02:27;;;;;;;6.65;5.13;;;25.80;63.30;;;;;;5003640;28;20113;-66
2023/07/12 11:04:53;;;;;;;11.20;6.03;;;25.80;64.00;;;;;;5004936;28;20563;-64
2023/07/12 11:07:18;;;;;;;8.18;5.75;;;25.80;64.00;;;;;;4990162;28;20136;-66
2023/07/12 11:09:45;;;;;;;6.15;5.55;;;25.80;64.40;;;;;;4999395;28;20084;-65
2023/07/12 11:12:38;;;;;;;6.15;5.53;;;25.80;64.10;;;;;;4994851;28;20034;-66
2023/07/12 11:15:04;;;;;;;6.22;5.63;;;25.90;64.10;;;;;;4990197;28;20581;-66
2023/07/12 11:17:48;;;;;;;7.18;5.32;;;25.90;64.10;;;;;;5005596;28;20107;-65
2023/07/12 11:20:25;;;;;;;7.32;5.03;;;25.90;63.60;;;;;;5007955;28;20049;-65
2023/07/12 11:23:30;;;;;;;6.70;5.57;;;26.00;62.20;;;;;;4997075;28;20038;-66
2023/07/12 11:26:18;;;;;;;6.30;5.15;;;25.90;63.30;;;;;;4991580;28;20049;-66
2023/07/12 11:28:44;;;;;;;6.28;4.70;;;25.90;63.10;;;;;;5006499;28;20037;-66
2023/07/12 11:31:26;;;;;;;6.32;4.80;;;25.90;62.50;;;;;;5001021;28;20038;-66
2023/07/12 11:34:15;;;;;;;5.88;4.95;;;25.90;62.10;;;;;;4992691;28;20472;-66
2023/07/12 11:36:46;;;;;;;6.15;4.40;;;25.90;61.70;;;;;;4988795;28;20050;-65
2023/07/12 11:39:18;;;;;;;4.93;4.30;;;25.90;61.50;;;;;;4999480;28;20042;-66
2023/07/12 11:41:58;;;;;;;6.15;3.75;;;25.90;61.20;;;;;;4998691;28;20166;-66
2023/07/12 11:44:27;;;;;;;5.90;4.95;;;25.90;60.80;;;;;;4996537;28;20037;-64
2023/07/12 11:46:53;;;;;;;6.15;3.90;;;25.90;60.40;;;;;;4995859;28;20053;-65
2023/07/12 11:49:22;;;;;;;4.82;3.60;;;25.90;60.20;;;;;;4993188;28;20073;-67
2023/07/12 11:51:53;;;;;;;3.95;3.50;;;25.90;59.90;;;;;;4998455;28;20544;-65
2023/07/12 11:54:21;;;;;;;7.85;3.60;;;25.90;59.90;;;;;;4995999;28;20058;-66
2023/07/12 11:56:49;;;;;;;4.40;4.00;;;25.90;59.50;;;;;;5005855;28;20990;-65
2023/07/12 11:59:24;;;;;;;3.95;3.47;;;25.90;59.20;;;;;;5000599;28;20117;-66
2023/07/12 12:01:51;;;;;;;5.68;3.47;;;25.90;59.20;;;;;;5003211;28;20379;-66
2023/07/12 12:04:23;;;;;;;4.22;3.05;;;25.90;59.10;;;;;;4998036;28;20022;-66
2023/07/12 12:06:52;;;;;;;4.50;3.50;;;25.90;58.60;;;;;;5006705;28;20027;-66
2023/07/12 12:09:24;;;;;;;3.47;2.85;;;25.80;58.40;;;;;;5008557;28;20034;-66
2023/07/12 12:11:50;;;;;;;3.58;2.75;;;25.80;58.50;;;;;;5000554;28;20063;-66
2023/07/12 12:14:21;;;;;;;7.13;3.20;;;25.90;58.30;;;;;;5007750;28;20048;-66
2023/07/12 12:16:54;;;;;;;5.00;3.08;;;25.80;58.00;;;;;;4997431;28;20125;-66
2023/07/12 12:19:21;;;;;;;4.57;3.20;;;25.80;57.80;;;;;;4996423;28;20084;-66
2023/07/12 12:21:52;;;;;;;5.13;3.63;;;25.80;57.90;;;;;;4990099;28;20030;-66
2023/07/12 12:24:20;;;;;;;3.60;3.00;;;25.90;57.60;;;;;;4998961;28;20030;-66
2023/07/12 12:26:48;;;;;;;3.60;3.03;;;25.90;57.70;;;;;;5002947;28;20113;-67
2023/07/12 12:29:21;;;;;;;3.80;3.08;;;25.90;57.60;;;;;;5000598;28;20026;-67
2023/07/12 12:31:55;;;;;;;4.20;2.90;;;25.90;57.60;;;;;;5003566;28;20081;-67
2023/07/12 12:34:24;;;;;;;3.53;3.20;;;25.90;57.80;;;;;;5000419;28;20064;-67
2023/07/12 12:37:00;;;;;;;4.13;3.20;;;25.90;57.70;;;;;;4997516;28;20035;-67
2023/07/12 12:39:26;;;;;;;3.53;3.08;;;25.90;57.70;;;;;;4998680;28;20513;-66
2023/07/12 12:42:02;;;;;;;3.53;2.75;;;25.90;57.70;;;;;;4997280;28;20077;-67
2023/07/12 12:44:35;;;;;;;3.97;2.97;;;25.90;57.60;;;;;;4997895;28;20041;-66
2023/07/12 12:47:13;;;;;;;3.28;2.97;;;25.90;56.90;;;;;;4998381;28;20033;-67
2023/07/12 12:49:38;;;;;;;6.80;3.05;;;25.90;57.10;;;;;;5002998;28;20029;-67
2023/07/12 12:52:30;;;;;;;4.90;2.72;;;25.90;56.70;;;;;;5007664;28;20024;-67